createdAt,value
2023-11-23T00:01:13.454Z,10.20
2023-11-23T00:03:42.504Z,9.00
2023-11-23T00:06:11.051Z,9.60
2023-11-23T00:08:42.718Z,8.60
2023-11-23T00:11:11.289Z,9.40
2023-11-23T00:13:39.637Z,8.60
2023-11-23T00:16:08.589Z,8.40
2023-11-23T00:18:36.834Z,9.00
2023-11-23T00:21:05.185Z,8.50
2023-11-23T00:23:33.602Z,10.10
2023-11-23T00:26:04.285Z,10.10
2023-11-23T00:28:32.521Z,9.70
2023-11-23T00:31:00.953Z,9.90
2023-11-23T00:33:30.154Z,9.90
2023-11-23T00:35:58.661Z,9.90
2023-11-23T00:38:27.009Z,8.20
2023-11-23T00:40:55.273Z,9.50
2023-11-23T00:43:23.672Z,9.40
2023-11-23T00:45:52.158Z,8.80
2023-11-23T00:48:21.617Z,8.10
2023-11-23T00:50:50.472Z,9.50
2023-11-23T00:53:18.547Z,8.80
2023-11-23T00:55:46.900Z,8.20
2023-11-23T00:58:15.060Z,9.80
2023-11-23T01:00:44.908Z,8.50
2023-11-23T01:03:13.454Z,8.40
2023-11-23T01:05:41.827Z,9.10
2023-11-23T01:08:10.329Z,9.90
2023-11-23T01:10:38.803Z,9.50
2023-11-23T01:13:07.484Z,9.60
2023-11-23T01:15:35.813Z,9.20
2023-11-23T01:18:04.134Z,10.50
2023-11-23T01:20:32.768Z,11.40
2023-11-23T01:23:01.129Z,10.20
2023-11-23T01:25:30.001Z,10.40
2023-11-23T01:27:59.654Z,10.30
2023-11-23T01:30:28.053Z,10.10
2023-11-23T01:32:57.741Z,9.60
2023-11-23T01:35:26.033Z,10.00
2023-11-23T01:37:54.425Z,9.70
2023-11-23T01:40:22.776Z,10.20
2023-11-23T01:42:51.166Z,9.30
2023-11-23T01:45:19.612Z,11.20
2023-11-23T01:47:48.260Z,9.60
2023-11-23T01:50:18.155Z,10.60
2023-11-23T01:52:47.352Z,11.00
2023-11-23T01:55:16.324Z,11.10
2023-11-23T01:57:47.776Z,9.90
2023-11-23T02:00:16.362Z,10.90
2023-11-23T02:02:45.396Z,10.20
2023-11-23T02:05:14.103Z,11.00
2023-11-23T02:07:43.585Z,11.20
2023-11-23T02:10:12.136Z,10.10
2023-11-23T02:12:40.721Z,9.90
2023-11-23T02:15:10.856Z,10.10
2023-11-23T02:17:41.243Z,9.20
2023-11-23T02:20:11.630Z,9.30
2023-11-23T02:22:40.281Z,9.30
2023-11-23T02:25:08.694Z,10.20
2023-11-23T02:27:37.167Z,10.30
2023-11-23T02:30:09.028Z,10.70
2023-11-23T02:32:37.474Z,9.90
2023-11-23T02:35:06.248Z,9.90
2023-11-23T02:37:34.379Z,11.00
2023-11-23T02:40:02.712Z,10.00
2023-11-23T02:42:31.156Z,12.40
2023-11-23T02:45:00.422Z,10.60
2023-11-23T02:47:29.008Z,11.20
2023-11-23T02:49:57.295Z,11.80
2023-11-23T02:52:26.118Z,10.90
2023-11-23T02:54:54.742Z,10.40
2023-11-23T02:57:22.981Z,8.60
2023-11-23T02:59:51.827Z,11.30
2023-11-23T03:02:20.485Z,11.20
2023-11-23T03:04:48.976Z,10.00
2023-11-23T03:07:19.269Z,10.10
2023-11-23T03:09:47.856Z,11.60
2023-11-23T03:12:16.557Z,10.40
2023-11-23T03:14:45.894Z,10.80
2023-11-23T03:17:14.480Z,10.80
2023-11-23T03:19:42.844Z,11.10
2023-11-23T03:22:11.210Z,10.80
2023-11-23T03:24:39.738Z,11.40
2023-11-23T03:27:10.814Z,12.50
2023-11-23T03:29:39.083Z,12.90
2023-11-23T03:32:07.584Z,12.50
2023-11-23T03:34:35.889Z,12.60
2023-11-23T03:37:04.395Z,8.70
2023-11-23T03:39:32.676Z,8.60
2023-11-23T03:42:02.492Z,8.40
2023-11-23T03:44:30.910Z,7.90
2023-11-23T03:46:59.097Z,10.10
2023-11-23T03:49:27.398Z,10.70
2023-11-23T03:51:55.836Z,8.70
2023-11-23T03:54:24.307Z,8.70
2023-11-23T03:56:52.611Z,11.10
2023-11-23T03:59:20.873Z,9.90
2023-11-23T04:01:50.232Z,8.20
2023-11-23T04:04:18.831Z,11.20
2023-11-23T04:06:47.073Z,9.10
2023-11-23T04:09:15.490Z,9.80
2023-11-23T04:11:44.284Z,8.90
2023-11-23T04:14:15.640Z,9.80
2023-11-23T04:16:43.977Z,9.50
2023-11-23T04:19:12.439Z,10.90
2023-11-23T04:21:40.759Z,10.50
2023-11-23T04:24:09.389Z,9.40
2023-11-23T04:26:37.599Z,9.70
2023-11-23T04:29:05.899Z,9.10
2023-11-23T04:31:34.282Z,8.80
2023-11-23T04:34:03.615Z,8.30
2023-11-23T04:36:32.354Z,9.20
2023-11-23T04:39:00.992Z,9.30
2023-11-23T04:41:29.794Z,9.30
2023-11-23T04:43:58.343Z,9.50
2023-11-23T04:46:26.815Z,9.00
2023-11-23T04:48:55.149Z,8.90
2023-11-23T04:51:23.402Z,8.70
2023-11-23T04:53:52.096Z,9.90
2023-11-23T04:56:21.011Z,9.40
2023-11-23T04:58:49.576Z,10.40
2023-11-23T05:01:18.190Z,10.00
2023-11-23T05:03:46.523Z,9.40
2023-11-23T05:06:16.878Z,10.00
2023-11-23T05:08:47.670Z,10.30
2023-11-23T05:11:16.371Z,11.70
2023-11-23T05:13:44.610Z,12.00
2023-11-23T05:16:13.076Z,12.00
2023-11-23T05:18:44.482Z,12.90
2023-11-23T05:21:13.079Z,11.90
2023-11-23T05:23:41.207Z,11.70
2023-11-23T05:26:09.507Z,11.70
2023-11-23T05:28:37.746Z,12.40
2023-11-23T05:31:05.776Z,12.60
2023-11-23T05:33:34.007Z,13.00
2023-11-23T05:36:02.270Z,11.50
2023-11-23T05:38:30.641Z,14.20
2023-11-23T05:40:59.007Z,11.50
2023-11-23T05:43:27.370Z,10.70
2023-11-23T05:45:55.693Z,11.50
2023-11-23T05:48:24.039Z,12.90
2023-11-23T05:50:54.236Z,12.80
2023-11-23T05:53:22.460Z,11.80
2023-11-23T05:55:50.683Z,11.20
2023-11-23T05:58:19.201Z,9.70
2023-11-23T06:00:52.185Z,10.20
2023-11-23T06:03:26.541Z,11.70
2023-11-23T06:05:55.496Z,12.30
2023-11-23T06:08:23.860Z,12.30
2023-11-23T06:10:52.469Z,11.10
2023-11-23T06:13:20.930Z,11.40
2023-11-23T06:15:50.290Z,10.20
2023-11-23T06:18:18.747Z,11.70
2023-11-23T06:20:47.589Z,13.20
2023-11-23T06:23:15.842Z,15.30
2023-11-23T06:25:44.255Z,17.40
2023-11-23T06:28:16.204Z,18.00
2023-11-23T06:30:47.618Z,20.50
2023-11-23T06:33:16.103Z,25.00
2023-11-23T06:35:45.789Z,19.20
2023-11-23T06:38:14.360Z,20.00
2023-11-23T06:40:42.942Z,16.80
2023-11-23T06:43:11.278Z,19.10
2023-11-23T06:45:40.546Z,19.10
2023-11-23T06:48:09.370Z,17.90
2023-11-23T06:50:37.758Z,22.20
2023-11-23T06:53:06.374Z,16.60
2023-11-23T06:55:35.050Z,16.00
2023-11-23T06:58:04.489Z,15.30
2023-11-23T07:00:33.163Z,16.80
2023-11-23T07:03:01.820Z,12.50
2023-11-23T07:05:30.320Z,15.20
2023-11-23T07:07:58.888Z,14.70
2023-11-23T07:10:28.221Z,14.00
2023-11-23T07:12:57.033Z,14.20
2023-11-23T07:15:28.002Z,14.70
2023-11-23T07:18:00.776Z,15.40
2023-11-23T07:20:29.867Z,17.40
2023-11-23T07:22:58.728Z,17.10
2023-11-23T07:25:27.862Z,16.30
2023-11-23T07:27:57.165Z,17.70
2023-11-23T07:30:26.273Z,14.90
2023-11-23T07:32:54.994Z,15.80
2023-11-23T07:35:23.656Z,16.70
2023-11-23T07:37:52.464Z,14.80
2023-11-23T07:40:23.511Z,14.70
2023-11-23T07:42:52.173Z,13.90
2023-11-23T07:45:21.015Z,13.80
2023-11-23T07:47:49.510Z,13.30
2023-11-23T07:50:17.896Z,14.20
2023-11-23T07:52:48.093Z,15.30
2023-11-23T07:55:20.080Z,12.10
2023-11-23T07:57:50.167Z,14.60
2023-11-23T08:00:22.867Z,14.20
2023-11-23T08:02:52.071Z,17.50
2023-11-23T08:05:21.408Z,16.80
2023-11-23T08:07:51.916Z,14.60
2023-11-23T08:10:21.153Z,17.20
2023-11-23T08:12:50.388Z,16.50
2023-11-23T08:15:20.000Z,16.50
2023-11-23T08:17:58.124Z,16.20
2023-11-23T08:20:30.560Z,16.10
2023-11-23T08:22:59.470Z,16.30
2023-11-23T08:25:28.837Z,16.40
2023-11-23T08:27:59.051Z,16.10
2023-11-23T08:30:29.615Z,16.60
2023-11-23T08:33:00.883Z,15.30
2023-11-23T08:35:30.556Z,27.80
2023-11-23T08:38:00.664Z,17.70
2023-11-23T08:40:29.586Z,14.80
2023-11-23T08:42:58.748Z,14.00
2023-11-23T08:45:27.804Z,14.60
2023-11-23T08:47:57.115Z,15.10
2023-11-23T08:50:26.069Z,12.20
2023-11-23T08:52:59.233Z,13.10
2023-11-23T08:55:28.850Z,13.60
2023-11-23T08:57:57.471Z,14.30
2023-11-23T09:00:29.230Z,13.90
2023-11-23T09:02:58.253Z,13.00
2023-11-23T09:05:27.944Z,13.80
2023-11-23T09:07:57.377Z,13.00
2023-11-23T09:10:27.186Z,13.00
2023-11-23T09:12:56.371Z,13.30
2023-11-23T09:15:25.094Z,11.90
2023-11-23T09:17:54.436Z,12.80
2023-11-23T09:20:23.144Z,12.40
2023-11-23T09:22:52.235Z,13.00
2023-11-23T09:25:22.100Z,11.60
2023-11-23T09:27:51.954Z,13.50
2023-11-23T09:30:20.584Z,14.30
2023-11-23T09:32:49.581Z,12.60
2023-11-23T09:35:18.171Z,14.70
2023-11-23T09:37:47.262Z,12.10
2023-11-23T09:40:18.796Z,12.00
2023-11-23T09:42:50.960Z,14.00
2023-11-23T09:45:24.022Z,10.20
2023-11-23T09:47:58.436Z,12.20
2023-11-23T09:50:34.755Z,11.40
2023-11-23T09:53:09.901Z,12.70
2023-11-23T09:55:39.286Z,11.20
2023-11-23T09:58:08.016Z,11.40
2023-11-23T10:00:37.587Z,12.20
2023-11-23T10:03:09.231Z,12.10
2023-11-23T10:05:40.228Z,11.70
2023-11-23T10:08:10.901Z,11.40
2023-11-23T10:10:42.242Z,11.60
2023-11-23T10:13:10.986Z,11.10
2023-11-23T10:15:40.021Z,10.70
2023-11-23T10:18:08.649Z,12.50
2023-11-23T10:20:40.025Z,9.30
2023-11-23T10:23:09.470Z,9.40
2023-11-23T10:25:38.399Z,9.60
2023-11-23T10:28:07.419Z,8.20
2023-11-23T10:30:39.084Z,8.40
2023-11-23T10:33:12.852Z,10.60
2023-11-23T10:35:54.356Z,10.90
2023-11-23T10:38:35.487Z,10.30
2023-11-23T10:41:16.213Z,8.90
2023-11-23T10:43:47.522Z,10.40
2023-11-23T10:46:20.051Z,10.20
2023-11-23T10:48:50.593Z,10.90
2023-11-23T10:51:22.426Z,9.20
2023-11-23T10:53:51.106Z,9.60
2023-11-23T10:56:24.235Z,8.80
2023-11-23T10:58:58.656Z,7.60
2023-11-23T11:01:29.191Z,8.80
2023-11-23T11:03:58.820Z,8.60
2023-11-23T11:06:28.428Z,8.30
2023-11-23T11:08:57.162Z,8.10
2023-11-23T11:11:27.150Z,9.90
2023-11-23T11:14:03.716Z,8.50
2023-11-23T11:16:40.774Z,8.70
2023-11-23T11:19:15.207Z,9.20
2023-11-23T11:21:46.246Z,7.90
2023-11-23T11:24:20.247Z,8.10
2023-11-23T11:26:49.954Z,9.30
2023-11-23T11:29:19.145Z,6.90
2023-11-23T11:31:50.997Z,9.20
2023-11-23T11:34:26.652Z,8.10
2023-11-23T11:37:00.217Z,8.60
2023-11-23T11:39:33.389Z,7.60
2023-11-23T11:42:02.966Z,9.40
2023-11-23T11:44:35.073Z,9.60
2023-11-23T11:47:07.711Z,10.20
2023-11-23T11:49:36.599Z,9.60
2023-11-23T11:52:08.880Z,10.10
2023-11-23T11:54:39.793Z,9.60
2023-11-23T11:57:10.137Z,8.00
2023-11-23T11:59:40.022Z,10.60
2023-11-23T12:02:11.733Z,9.30
2023-11-23T12:04:42.935Z,9.00
2023-11-23T12:07:17.970Z,7.80
2023-11-23T12:09:55.442Z,8.00
2023-11-23T12:12:24.270Z,8.20
2023-11-23T12:14:52.929Z,7.80
2023-11-23T12:17:22.199Z,7.80
2023-11-23T12:19:56.516Z,8.40
2023-11-23T12:22:27.913Z,8.50
2023-11-23T12:25:06.323Z,8.90
2023-11-23T12:27:35.833Z,8.40
2023-11-23T12:30:06.143Z,9.60
2023-11-23T12:32:35.234Z,10.20
2023-11-23T12:35:03.793Z,8.90
2023-11-23T12:37:32.516Z,8.10
2023-11-23T12:40:01.438Z,8.20
2023-11-23T12:42:30.396Z,8.90
2023-11-23T12:44:58.950Z,8.90
2023-11-23T12:47:31.193Z,8.20
2023-11-23T12:49:59.991Z,7.60
2023-11-23T12:52:34.453Z,7.40
2023-11-23T12:55:03.221Z,7.90
2023-11-23T12:57:31.787Z,7.20
2023-11-23T13:00:01.816Z,8.00
2023-11-23T13:02:30.484Z,7.90
2023-11-23T13:04:59.698Z,7.60
2023-11-23T13:07:28.458Z,8.70
2023-11-23T13:09:57.054Z,8.40
2023-11-23T13:12:25.805Z,9.00
2023-11-23T13:14:54.417Z,9.60
2023-11-23T13:17:24.798Z,8.50
2023-11-23T13:19:54.471Z,9.30
2023-11-23T13:22:23.271Z,7.30
2023-11-23T13:24:59.338Z,7.20
2023-11-23T13:27:29.119Z,7.80
2023-11-23T13:29:58.120Z,9.10
2023-11-23T13:32:27.239Z,8.60
2023-11-23T13:34:56.714Z,8.30
2023-11-23T13:37:25.374Z,9.20
2023-11-23T13:39:54.383Z,9.20
2023-11-23T13:42:23.491Z,9.30
2023-11-23T13:44:52.245Z,8.10
2023-11-23T13:47:20.957Z,8.50
2023-11-23T13:49:49.507Z,7.90
2023-11-23T13:52:18.632Z,8.70
2023-11-23T13:54:48.943Z,9.30
2023-11-23T13:57:18.841Z,8.50
2023-11-23T13:59:47.666Z,8.60
2023-11-23T14:02:21.931Z,8.30
2023-11-23T14:04:51.205Z,9.20
2023-11-23T14:07:20.004Z,7.90
2023-11-23T14:09:48.694Z,7.10
2023-11-23T14:12:17.365Z,8.40
2023-11-23T14:14:46.277Z,8.00
2023-11-23T14:17:15.183Z,8.00
2023-11-23T14:19:43.902Z,8.20
2023-11-23T14:22:12.411Z,9.50
2023-11-23T14:24:41.316Z,8.50
2023-11-23T14:27:11.257Z,9.00
2023-11-23T14:29:41.424Z,8.10
2023-11-23T14:32:10.552Z,7.90
2023-11-23T14:34:45.221Z,8.10
2023-11-23T14:37:15.118Z,9.00
2023-11-23T14:39:47.186Z,9.70
2023-11-23T14:42:18.292Z,8.70
2023-11-23T14:44:48.457Z,9.70
2023-11-23T14:47:18.523Z,9.80
2023-11-23T14:49:46.985Z,9.70
2023-11-23T14:52:17.364Z,9.60
2023-11-23T14:54:49.905Z,8.90
2023-11-23T14:57:19.859Z,8.80
2023-11-23T14:59:48.783Z,8.70
2023-11-23T15:02:17.158Z,7.40
2023-11-23T15:04:45.824Z,8.00
2023-11-23T15:07:14.301Z,7.50
2023-11-23T15:09:44.404Z,7.90
2023-11-23T15:12:15.555Z,7.50
2023-11-23T15:14:44.123Z,8.40
2023-11-23T15:17:12.685Z,8.30
2023-11-23T15:19:41.103Z,8.30
2023-11-23T15:22:09.689Z,9.20
2023-11-23T15:24:38.137Z,11.10
2023-11-23T15:27:09.015Z,11.50
2023-11-23T15:29:38.208Z,10.40
2023-11-23T15:32:07.859Z,12.00
2023-11-23T15:34:37.129Z,12.10
2023-11-23T15:37:06.137Z,11.90
2023-11-23T15:39:34.883Z,10.30
2023-11-23T15:42:04.632Z,10.80
2023-11-23T15:44:33.226Z,12.50
2023-11-23T15:47:03.782Z,13.00
2023-11-23T15:49:33.472Z,12.70
2023-11-23T15:52:03.079Z,11.10
2023-11-23T15:54:31.789Z,12.90
2023-11-23T15:57:00.513Z,13.20
2023-11-23T15:59:29.025Z,12.80
2023-11-23T16:01:59.338Z,13.10
2023-11-23T16:04:30.730Z,11.90
2023-11-23T16:07:02.118Z,12.50
2023-11-23T16:09:30.954Z,11.30
2023-11-23T16:12:00.433Z,13.80
2023-11-23T16:14:29.058Z,12.50
2023-11-23T16:16:58.182Z,12.60
2023-11-23T16:19:28.996Z,11.70
2023-11-23T16:21:57.640Z,12.70
2023-11-23T16:24:26.178Z,12.00
2023-11-23T16:26:55.985Z,12.70
2023-11-23T16:29:24.678Z,13.10
2023-11-23T16:31:56.435Z,12.80
2023-11-23T16:34:24.998Z,13.30
2023-11-23T16:36:53.558Z,14.00
2023-11-23T16:39:22.552Z,14.30
2023-11-23T16:41:51.172Z,14.40
2023-11-23T16:44:19.661Z,14.30
2023-11-23T16:46:50.665Z,15.00
2023-11-23T16:49:19.482Z,14.90
2023-11-23T16:51:48.691Z,16.50
2023-11-23T16:54:20.755Z,15.80
2023-11-23T16:56:53.159Z,15.70
2023-11-23T16:59:22.826Z,14.60
2023-11-23T17:01:51.824Z,15.70
2023-11-23T17:04:23.763Z,20.80
2023-11-23T17:06:53.091Z,16.50
2023-11-23T17:09:22.886Z,17.50
2023-11-23T17:11:54.146Z,16.80
2023-11-23T17:14:23.222Z,17.40
2023-11-23T17:16:53.546Z,16.00
2023-11-23T17:19:25.528Z,15.70
2023-11-23T17:21:58.333Z,17.00
2023-11-23T17:24:28.252Z,16.90
2023-11-23T17:26:56.687Z,16.10
2023-11-23T17:29:25.380Z,17.90
2023-11-23T17:31:58.729Z,19.90
2023-11-23T17:34:28.649Z,16.50
2023-11-23T17:36:57.087Z,24.10
2023-11-23T17:39:25.917Z,25.20
2023-11-23T17:41:55.414Z,25.60
2023-11-23T17:44:25.366Z,24.80
2023-11-23T17:46:55.072Z,23.30
2023-11-23T17:49:25.584Z,24.90
2023-11-23T17:51:55.017Z,23.70
2023-11-23T17:54:24.277Z,24.80
2023-11-23T17:56:52.870Z,25.20
2023-11-23T17:59:31.740Z,23.70
2023-11-23T18:02:08.010Z,20.20
2023-11-23T18:04:38.360Z,24.50
2023-11-23T18:07:08.682Z,24.80
2023-11-23T18:09:37.633Z,24.20
2023-11-23T18:12:09.443Z,23.60
2023-11-23T18:14:37.924Z,21.30
2023-11-23T18:17:09.800Z,25.40
2023-11-23T18:19:38.656Z,23.20
2023-11-23T18:22:09.751Z,21.30
2023-11-23T18:24:38.434Z,22.70
2023-11-23T18:27:07.921Z,22.60
2023-11-23T18:29:37.459Z,20.30
2023-11-23T18:32:06.006Z,21.70
2023-11-23T18:34:35.166Z,21.70
2023-11-23T18:37:03.444Z,20.50
2023-11-23T18:39:32.085Z,19.30
2023-11-23T18:42:00.625Z,18.40
2023-11-23T18:44:29.005Z,18.90
2023-11-23T18:46:57.417Z,19.50
2023-11-23T18:49:29.349Z,16.10
2023-11-23T18:51:58.738Z,17.90
2023-11-23T18:54:27.452Z,19.10
2023-11-23T18:56:57.170Z,19.90
2023-11-23T18:59:25.953Z,18.90
2023-11-23T19:01:55.951Z,17.50
2023-11-23T19:04:24.774Z,21.10
2023-11-23T19:06:56.269Z,20.60
2023-11-23T19:09:28.770Z,19.80
2023-11-23T19:11:58.273Z,18.80
2023-11-23T19:14:26.906Z,16.40
2023-11-23T19:16:55.332Z,18.80
2023-11-23T19:19:25.028Z,16.60
2023-11-23T19:21:53.681Z,17.80
2023-11-23T19:24:22.540Z,18.50
2023-11-23T19:26:51.795Z,18.20
2023-11-23T19:29:21.350Z,18.80
2023-11-23T19:31:52.462Z,19.80
2023-11-23T19:34:21.144Z,18.60
2023-11-23T19:36:49.995Z,21.70
2023-11-23T19:39:20.297Z,23.70
2023-11-23T19:41:48.842Z,21.30
2023-11-23T19:44:17.513Z,19.50
2023-11-23T19:46:46.258Z,18.60
2023-11-23T19:49:15.834Z,16.50
2023-11-23T19:51:46.128Z,16.00
2023-11-23T19:54:14.874Z,17.20
2023-11-23T19:56:43.365Z,16.40
2023-11-23T19:59:11.849Z,16.60
2023-11-23T20:01:40.830Z,16.80
2023-11-23T20:04:09.667Z,17.70
2023-11-23T20:06:38.137Z,16.60
2023-11-23T20:09:10.920Z,16.60
2023-11-23T20:11:39.906Z,17.40
2023-11-23T20:14:08.284Z,17.20
2023-11-23T20:16:37.001Z,17.80
2023-11-23T20:19:05.942Z,17.80
2023-11-23T20:21:34.728Z,18.80
2023-11-23T20:24:03.135Z,20.00
2023-11-23T20:26:31.772Z,18.20
2023-11-23T20:29:00.242Z,22.10
2023-11-23T20:31:29.753Z,23.40
2023-11-23T20:33:58.123Z,20.70
2023-11-23T20:36:26.420Z,20.50
2023-11-23T20:38:54.796Z,21.60
2023-11-23T20:41:23.621Z,21.80
2023-11-23T20:43:52.023Z,22.90
2023-11-23T20:46:22.429Z,22.30
2023-11-23T20:48:51.628Z,23.10
2023-11-23T20:51:20.251Z,23.20
2023-11-23T20:53:51.862Z,24.30
2023-11-23T20:56:26.024Z,21.90
2023-11-23T20:58:57.648Z,19.10
2023-11-23T21:01:27.546Z,17.30
2023-11-23T21:03:56.517Z,18.90
2023-11-23T21:06:26.641Z,19.20
2023-11-23T21:08:56.518Z,19.50
2023-11-23T21:11:24.795Z,19.50
2023-11-23T21:13:53.211Z,17.80
2023-11-23T21:16:21.440Z,18.60
2023-11-23T21:18:49.734Z,19.00
2023-11-23T21:21:18.251Z,18.70
2023-11-23T21:23:46.504Z,18.30
2023-11-23T21:26:14.817Z,19.70
2023-11-23T21:28:45.943Z,19.30
2023-11-23T21:31:14.259Z,20.00
2023-11-23T21:33:43.681Z,19.80
2023-11-23T21:36:12.435Z,20.20
2023-11-23T21:38:40.781Z,19.40
2023-11-23T21:41:10.135Z,19.40
2023-11-23T21:43:38.475Z,21.50
2023-11-23T21:46:06.891Z,20.80
2023-11-23T21:48:36.203Z,16.50
2023-11-23T21:51:04.827Z,20.30
2023-11-23T21:53:33.736Z,18.20
2023-11-23T21:56:02.010Z,18.50
2023-11-23T21:58:30.901Z,19.30
2023-11-23T22:00:59.330Z,18.60
2023-11-23T22:03:28.970Z,20.80
2023-11-23T22:05:57.402Z,20.40
2023-11-23T22:08:26.098Z,20.60
2023-11-23T22:10:54.696Z,18.80
2023-11-23T22:13:23.439Z,19.80
2023-11-23T22:15:53.075Z,20.90
2023-11-23T22:18:22.147Z,18.60
2023-11-23T22:20:51.246Z,19.30
2023-11-23T22:23:19.982Z,18.70
2023-11-23T22:25:48.826Z,19.00
2023-11-23T22:28:17.785Z,18.20
2023-11-23T22:30:46.689Z,18.20
2023-11-23T22:33:16.649Z,15.70
2023-11-23T22:35:45.285Z,19.30
2023-11-23T22:38:16.053Z,18.50
2023-11-23T22:40:45.218Z,17.30
2023-11-23T22:43:14.424Z,19.20
2023-11-23T22:45:43.237Z,16.70
2023-11-23T22:48:12.009Z,19.20
2023-11-23T22:50:40.480Z,18.60
2023-11-23T22:53:08.911Z,19.60
2023-11-23T22:55:37.304Z,19.00
2023-11-23T22:58:05.635Z,19.30
2023-11-23T23:00:38.126Z,19.40
2023-11-23T23:03:07.118Z,18.30
2023-11-23T23:05:36.190Z,15.50
2023-11-23T23:08:05.308Z,17.20
2023-11-23T23:10:34.539Z,18.20
2023-11-23T23:13:06.883Z,17.80
2023-11-23T23:15:35.193Z,17.20
2023-11-23T23:18:03.721Z,15.90
2023-11-23T23:20:32.074Z,18.00
2023-11-23T23:23:00.521Z,20.50
2023-11-23T23:25:28.866Z,18.20
2023-11-23T23:27:57.864Z,18.40
2023-11-23T23:30:27.956Z,19.60
2023-11-23T23:32:56.446Z,18.20
2023-11-23T23:35:25.244Z,16.90
2023-11-23T23:37:54.909Z,19.80
2023-11-23T23:40:24.659Z,18.10
2023-11-23T23:42:53.753Z,16.80
2023-11-23T23:45:22.971Z,18.40
2023-11-23T23:47:51.529Z,17.80
2023-11-23T23:50:21.114Z,18.50
2023-11-23T23:52:49.506Z,17.90
2023-11-23T23:55:17.755Z,16.50
2023-11-23T23:57:46.013Z,18.60
